Time;durP1;ratioP1;P1;durP2;ratioP2;P2;SDS_P1;SDS_P2;PMS_P1;PMS_P2;Temp;Humidity;BMP_temperature;BMP_pressure;BME280_temperature;BME280_humidity;BME280_pressure;Samples;Min_cycle;Max_cycle;Signal;HPM_P1;HPM_P2
2022/10/03 00:02:17;;;;;;;24.83;18.80;;;;;;;13.29;100.00;97723.75;4961853;28;20042;-67
2022/10/03 00:05:01;;;;;;;19.48;17.17;;;;;;;13.37;100.00;97715.50;5037786;28;20068;-67
2022/10/03 00:07:58;;;;;;;20.83;17.35;;;;;;;13.38;100.00;97707.59;5026686;28;20034;-67
2022/10/03 00:10:27;;;;;;;17.48;15.65;;;;;;;13.41;100.00;97704.78;5024619;28;20128;-67
2022/10/03 00:13:06;;;;;;;18.02;16.13;;;;;;;13.37;100.00;97689.50;5024357;28;20065;-67
2022/10/03 00:15:32;;;;;;;18.00;15.43;;;;;;;13.44;100.00;97701.16;5022756;28;20030;-68
2022/10/03 00:18:20;;;;;;;18.50;16.50;;;;;;;13.52;100.00;97688.47;5024140;28;20044;-66
2022/10/03 00:21:07;;;;;;;22.17;18.23;;;;;;;13.54;100.00;97676.22;5024108;28;20314;-67
2022/10/03 00:24:18;;;;;;;22.70;17.48;;;;;;;13.68;100.00;97683.09;5024107;28;20032;-67
2022/10/03 00:27:04;;;;;;;20.92;17.92;;;;;;;13.77;100.00;97684.25;4997404;28;20041;-67
2022/10/03 00:29:30;;;;;;;18.80;16.80;;;;;;;13.70;100.00;97678.63;5018606;28;20086;-67
2022/10/03 00:32:14;;;;;;;25.25;19.65;;;;;;;13.83;100.00;97686.44;5023636;28;20053;-67
2022/10/03 00:35:14;;;;;;;22.08;18.40;;;;;;;13.84;100.00;97672.50;5024043;28;20034;-67
2022/10/03 00:37:56;;;;;;;21.17;18.90;;;;;;;13.78;100.00;97650.31;5024118;28;20148;-67
2022/10/03 00:40:59;;;;;;;20.77;18.58;;;;;;;13.87;100.00;97667.06;5019752;28;20030;-67
2022/10/03 00:44:03;;;;;;;21.73;19.40;;;;;;;13.90;100.00;97653.84;5019427;28;20025;-67
2022/10/03 00:46:55;;;;;;;21.02;18.10;;;;;;;13.77;100.00;97640.03;5023627;28;20034;-68
2022/10/03 00:49:55;;;;;;;21.67;19.48;;;;;;;13.85;100.00;97648.13;5024002;28;20026;-67
2022/10/03 00:52:45;;;;;;;22.20;19.15;;;;;;;13.96;100.00;97653.44;5023835;28;20096;-67
2022/10/03 00:55:33;;;;;;;20.95;18.75;;;;;;;14.02;100.00;97641.75;5019452;28;20366;-66
2022/10/03 00:58:21;;;;;;;23.02;20.73;;;;;;;14.09;100.00;97648.22;5014967;28;20022;-66
2022/10/03 01:00:51;;;;;;;21.48;19.27;;;;;;;14.18;100.00;97646.78;5022349;28;20214;-66
2022/10/03 01:03:45;;;;;;;21.00;18.65;;;;;;;14.10;100.00;97623.03;5024002;28;20036;-67
2022/10/03 01:06:34;;;;;;;18.55;16.55;;;;;;;14.15;100.00;97629.59;5028240;28;20075;-66
2022/10/03 01:09:11;;;;;;;20.45;18.30;;;;;;;14.28;100.00;97644.34;5024191;28;20310;-65
2022/10/03 01:12:06;;;;;;;19.17;16.88;;;;;;;14.21;100.00;97637.88;5023739;28;20088;-66
2022/10/03 01:14:55;;;;;;;20.13;17.30;;;;;;;14.15;100.00;97606.16;5009357;28;20049;-66
2022/10/03 01:17:53;;;;;;;18.48;16.55;;;;;;;14.29;100.00;97622.56;5004084;28;20034;-66
2022/10/03 01:20:29;;;;;;;19.00;17.05;;;;;;;14.31;100.00;97618.09;5004164;28;20042;-66
2022/10/03 01:23:13;;;;;;;16.15;14.65;;;;;;;14.37;100.00;97615.06;5024059;28;20063;-66
2022/10/03 01:25:48;;;;;;;18.17;15.88;;;;;;;14.41;100.00;97608.69;5023676;28;20026;-68
2022/10/03 01:31:08;;;;;;;17.67;15.88;;;;;;;14.33;100.00;97590.16;5022906;28;20340;-66
2022/10/03 01:33:40;;;;;;;19.23;15.43;;;;;;;14.33;100.00;97596.19;5038615;28;20036;-67
2022/10/03 01:36:13;;;;;;;17.92;16.10;;;;;;;14.37;100.00;97594.22;5023250;28;20029;-67
2022/10/03 01:39:02;;;;;;;18.17;16.33;;;;;;;14.30;100.00;97569.56;5024749;28;20037;-68
2022/10/03 01:41:48;;;;;;;17.98;16.15;;;;;;;14.36;100.00;97576.09;5010590;28;20064;-68
2022/10/03 01:44:24;;;;;;;18.88;16.85;;;;;;;14.54;100.00;97580.00;5007594;28;20037;-67
2022/10/03 01:47:04;;;;;;;15.68;14.18;;;;;;;14.49;100.00;97572.53;5025242;28;20034;-68
2022/10/03 01:49:44;;;;;;;18.45;16.50;;;;;;;14.58;100.00;97568.44;5028147;28;20049;-68
2022/10/03 01:52:18;;;;;;;15.70;14.10;;;;;;;14.54;100.00;97573.97;5027601;28;20087;-66
2022/10/03 01:54:50;;;;;;;14.65;13.30;;;;;;;14.55;100.00;97563.44;5027223;28;20057;-67
2022/10/03 01:57:25;;;;;;;14.95;13.45;;;;;;;14.54;100.00;97572.19;5027283;28;20030;-66
2022/10/03 02:00:09;;;;;;;14.30;12.90;;;;;;;14.54;100.00;97555.75;5026824;28;20097;-68
2022/10/03 02:02:54;;;;;;;16.58;14.93;;;;;;;14.63;100.00;97561.13;5027051;28;20101;-67
2022/10/03 02:05:40;;;;;;;16.35;13.60;;;;;;;14.66;100.00;97563.53;5006199;28;20341;-66
2022/10/03 02:08:27;;;;;;;17.10;15.30;;;;;;;14.72;100.00;97540.56;5006034;28;20203;-67
2022/10/03 02:11:07;;;;;;;15.25;13.68;;;;;;;14.68;100.00;97547.78;5024904;28;20092;-66
2022/10/03 02:13:51;;;;;;;14.45;12.95;;;;;;;14.66;100.00;97552.25;5026616;28;20302;-67
2022/10/03 02:16:23;;;;;;;14.88;13.38;;;;;;;14.75;100.00;97543.78;5026415;28;20045;-67
2022/10/03 02:19:13;;;;;;;14.55;13.20;;;;;;;14.76;100.00;97547.22;5026613;28;20022;-67
2022/10/03 02:21:52;;;;;;;14.75;13.25;;;;;;;14.71;100.00;97537.13;5026486;28;20075;-66
2022/10/03 02:24:36;;;;;;;13.35;12.02;;;;;;;14.65;100.00;97525.38;5011670;28;20080;-66
2022/10/03 02:27:23;;;;;;;14.32;12.88;;;;;;;14.84;100.00;97542.28;5026570;28;20030;-67
2022/10/03 02:30:03;;;;;;;15.40;13.20;;;;;;;14.93;100.00;97533.75;5026238;28;20038;-66
2022/10/03 02:32:51;;;;;;;;;;;;;;;14.98;100.00;97538.66;5025916;28;20109;-67
2022/10/03 02:35:44;;;;;;;15.52;13.85;;;;;;;14.96;100.00;97536.16;4976594;28;19913;-66
2022/10/03 02:38:35;;;;;;;15.48;13.60;;;;;;;15.01;100.00;97528.00;5012993;28;20038;-67
2022/10/03 02:41:31;;;;;;;15.25;13.75;;;;;;;14.98;100.00;97521.22;5026359;28;20084;-68
2022/10/03 02:44:30;;;;;;;13.82;12.35;;;;;;;14.93;100.00;97532.94;5026150;28;20029;-68
2022/10/03 02:47:08;;;;;;;16.00;14.30;;;;;;;15.00;100.00;97528.94;5026229;28;20030;-67
2022/10/03 02:49:55;;;;;;;14.93;13.40;;;;;;;15.04;100.00;97524.34;5021581;28;20089;-67
2022/10/03 02:52:56;;;;;;;13.85;12.45;;;;;;;14.94;100.00;97519.78;5019410;28;20037;-67
2022/10/03 02:55:52;;;;;;;13.90;12.43;;;;;;;14.92;100.00;97511.28;5003341;28;20038;-66
2022/10/03 02:58:29;;;;;;;12.80;11.60;;;;;;;14.85;100.00;97497.03;5026124;28;20337;-66
2022/10/03 03:01:14;;;;;;;12.80;11.60;;;;;;;14.88;100.00;97488.97;5025936;28;20310;-67
2022/10/03 03:04:01;;;;;;;12.85;11.65;;;;;;;14.94;100.00;97478.09;5025766;28;20042;-66
2022/10/03 03:06:36;;;;;;;13.20;11.25;;;;;;;14.97;100.00;97479.63;5031636;28;20064;-67
2022/10/03 03:09:35;;;;;;;13.43;11.80;;;;;;;14.99;100.00;97489.00;5043526;28;20021;-67
2022/10/03 03:12:16;;;;;;;13.82;12.43;;;;;;;15.01;100.00;97466.25;5025600;28;20030;-67
2022/10/03 03:15:00;;;;;;;13.73;12.32;;;;;;;15.12;100.00;97472.41;5025562;28;20049;-67
2022/10/03 03:17:36;;;;;;;15.15;13.27;;;;;;;15.12;100.00;97464.59;5024583;28;20029;-66
2022/10/03 03:20:29;;;;;;;12.77;11.23;;;;;;;15.11;100.00;97465.56;5024405;28;20080;-66
2022/10/03 03:23:47;;;;;;;16.23;12.23;;;;;;;15.08;100.00;97442.31;5024564;28;20026;-67
2022/10/03 03:26:34;;;;;;;13.27;11.82;;;;;;;15.06;100.00;97447.66;4984354;28;20089;-68
2022/10/03 03:29:17;;;;;;;13.73;12.32;;;;;;;15.09;100.00;97449.19;5002506;28;20093;-68
2022/10/03 03:32:10;;;;;;;13.77;12.43;;;;;;;15.16;100.00;97432.97;5003435;28;20043;-68
2022/10/03 03:34:53;;;;;;;12.57;11.38;;;;;;;15.16;100.00;97439.94;5003598;28;20072;-68
2022/10/03 03:37:38;;;;;;;13.18;11.70;;;;;;;15.16;100.00;97435.59;5003768;28;20073;-67
2022/10/03 03:40:31;;;;;;;12.20;11.00;;;;;;;15.11;100.00;97434.28;5003599;28;20034;-66
2022/10/03 03:43:17;;;;;;;13.27;12.07;;;;;;;15.25;100.00;97446.25;5003552;28;20346;-67
2022/10/03 03:46:04;;;;;;;14.15;12.65;;;;;;;15.29;100.00;97443.31;5003574;28;20038;-67
2022/10/03 03:48:49;;;;;;;14.60;13.25;;;;;;;15.36;100.00;97444.47;5003572;28;20076;-68
2022/10/03 03:51:40;;;;;;;15.45;14.05;;;;;;;15.35;100.00;97432.38;5003495;28;20049;-67
2022/10/03 03:54:06;;;;;;;18.92;14.43;;;;;;;15.41;100.00;97438.91;5003582;28;20026;-67
2022/10/03 03:56:41;;;;;;;16.52;14.93;;;;;;;15.39;100.00;97433.00;5010503;28;20254;-68
2022/10/03 03:59:14;;;;;;;20.02;17.85;;;;;;;15.29;100.00;97408.53;5008793;28;20246;-67
2022/10/03 04:02:20;;;;;;;18.00;15.50;;;;;;;15.43;100.00;97412.69;5019281;28;20048;-66
2022/10/03 04:04:50;;;;;;;18.38;16.27;;;;;;;15.57;100.00;97412.44;4991486;28;20101;-67
2022/10/03 04:07:16;;;;;;;17.77;15.88;;;;;;;15.45;100.00;97409.03;5036660;28;20412;-66
2022/10/03 04:09:54;;;;;;;19.50;17.13;;;;;;;15.49;100.00;97405.22;5037193;28;20140;-68
2022/10/03 04:12:53;;;;;;;18.63;16.70;;;;;;;15.43;100.00;97397.03;5024415;28;20030;-68
2022/10/03 04:15:54;;;;;;;18.63;16.58;;;;;;;15.53;100.00;97403.19;5025240;28;20383;-68
2022/10/03 04:18:57;;;;;;;20.20;16.70;;;;;;;15.59;100.00;97396.66;5024547;28;20329;-68
2022/10/03 04:21:31;;;;;;;19.25;17.25;;;;;;;15.54;100.00;97403.06;5023252;28;20033;-69
2022/10/03 04:24:06;;;;;;;19.67;16.70;;;;;;;15.60;100.00;97387.88;5024094;28;20025;-68
2022/10/03 04:26:51;;;;;;;20.33;17.08;;;;;;;15.56;100.00;97387.28;5024235;28;20029;-68
2022/10/03 04:29:37;;;;;;;18.50;16.60;;;;;;;15.62;100.00;97381.59;5023026;28;20077;-68
2022/10/03 04:32:32;;;;;;;18.48;16.67;;;;;;;15.64;100.00;97378.88;5023635;28;20050;-68
2022/10/03 04:35:19;;;;;;;18.83;16.70;;;;;;;15.65;100.00;97380.53;5024392;28;20286;-67
2022/10/03 04:37:51;;;;;;;17.80;16.08;;;;;;;15.71;100.00;97380.03;5023766;28;20040;-66
2022/10/03 04:40:17;;;;;;;;;;;;;;;15.63;100.00;97380.63;5023007;28;20058;-69
2022/10/03 04:42:48;;;;;;;16.98;15.15;;;;;;;15.67;100.00;97381.22;5024273;28;19933;-67
2022/10/03 04:45:17;;;;;;;17.08;15.40;;;;;;;15.77;100.00;97382.16;5023089;28;20198;-67
2022/10/03 04:47:51;;;;;;;17.70;15.57;;;;;;;15.71;100.00;97374.81;5023690;28;20325;-67
2022/10/03 04:50:34;;;;;;;17.45;15.20;;;;;;;15.67;100.00;97376.84;5023958;28;20050;-69
2022/10/03 04:53:39;;;;;;;17.30;15.23;;;;;;;15.79;100.00;97363.78;5024153;28;20031;-67
2022/10/03 04:56:39;;;;;;;15.98;14.35;;;;;;;15.78;100.00;97355.09;5022234;28;20195;-69
2022/10/03 04:59:23;;;;;;;19.58;16.25;;;;;;;15.85;100.00;97358.09;5023654;28;20061;-68
2022/10/03 05:02:00;;;;;;;17.95;16.00;;;;;;;15.83;100.00;97358.22;5022535;28;20084;-68
2022/10/03 05:04:57;;;;;;;18.52;15.32;;;;;;;15.85;100.00;97350.25;5021204;28;20088;-68
2022/10/03 05:07:44;;;;;;;18.02;14.73;;;;;;;15.76;100.00;97346.59;5021473;28;20026;-68
2022/10/03 05:10:29;;;;;;;16.42;14.35;;;;;;;15.76;100.00;97340.50;5022322;28;20038;-67
2022/10/03 05:13:15;;;;;;;20.88;16.15;;;;;;;15.91;100.00;97349.75;5021464;28;20025;-68
2022/10/03 05:16:03;;;;;;;16.83;14.57;;;;;;;15.89;100.00;97341.22;5022278;28;20032;-68
2022/10/03 05:18:41;;;;;;;16.25;14.27;;;;;;;15.95;100.00;97348.56;5036260;28;20075;-68
2022/10/03 05:21:15;;;;;;;17.73;13.32;;;;;;;15.76;100.00;97357.03;5033169;28;20108;-69
2022/10/03 05:24:18;;;;;;;14.13;12.75;;;;;;;15.77;100.00;97347.41;5023468;28;20092;-68
2022/10/03 05:27:07;;;;;;;15.45;12.35;;;;;;;15.75;100.00;97338.84;5023018;28;20431;-68
2022/10/03 05:29:36;;;;;;;15.80;11.65;;;;;;;15.75;100.00;97339.69;5022800;28;20329;-69
2022/10/03 05:32:39;;;;;;;15.95;12.95;;;;;;;15.86;100.00;97326.63;5021897;28;20049;-68
2022/10/03 05:35:19;;;;;;;16.70;13.50;;;;;;;15.91;100.00;97318.44;5023328;28;20275;-69
2022/10/03 05:38:19;;;;;;;18.98;12.48;;;;;;;15.82;100.00;97308.75;5023259;28;20060;-68
2022/10/03 05:41:11;;;;;;;17.17;11.95;;;;;;;15.77;100.00;97357.84;5015383;28;20033;-69
2022/10/03 05:43:57;;;;;;;12.45;10.43;;;;;;;15.80;100.00;97319.28;5022319;28;20022;-70
2022/10/03 05:46:40;;;;;;;13.57;11.65;;;;;;;15.92;100.00;97314.03;5023452;28;20038;-69
2022/10/03 05:49:31;;;;;;;14.23;11.85;;;;;;;15.92;100.00;97306.19;5023429;28;20041;-69
2022/10/03 05:52:15;;;;;;;12.93;11.43;;;;;;;15.90;100.00;97295.88;5022908;28;20030;-69
2022/10/03 05:55:14;;;;;;;13.93;11.70;;;;;;;15.86;100.00;97274.44;5022718;28;20030;-69
2022/10/03 05:57:46;;;;;;;14.68;11.65;;;;;;;15.98;100.00;97283.03;5023080;28;20054;-69
2022/10/03 06:00:18;;;;;;;13.73;10.60;;;;;;;15.96;100.00;97264.06;5022665;28;20041;-68
2022/10/03 06:02:51;;;;;;;13.25;10.40;;;;;;;15.96;100.00;97279.72;5023060;28;20088;-69
2022/10/03 06:05:55;;;;;;;12.90;9.75;;;;;;;15.95;100.00;97278.06;5023047;28;20029;-69
2022/10/03 06:08:53;;;;;;;17.35;8.30;;;;;;;15.87;100.00;97262.19;5023107;28;20072;-68
2022/10/03 06:11:37;;;;;;;11.10;9.82;;;;;;;15.96;100.00;97258.00;5022985;28;20258;-68
2022/10/03 06:14:23;;;;;;;12.10;9.38;;;;;;;15.98;100.00;97248.28;5022687;28;20018;-69
2022/10/03 06:17:17;;;;;;;13.55;9.70;;;;;;;16.08;100.00;97264.81;5022478;28;20033;-68
2022/10/03 06:20:11;;;;;;;11.65;9.65;;;;;;;16.13;100.00;97265.28;5003273;28;20233;-69
2022/10/03 06:23:14;;;;;;;12.40;8.25;;;;;;;15.98;100.00;97267.38;5009337;28;20029;-70
2022/10/03 06:25:49;;;;;;;13.63;9.10;;;;;;;16.04;100.00;97259.00;5006156;28;20318;-70
2022/10/03 06:28:17;;;;;;;12.27;8.52;;;;;;;16.08;100.00;97254.38;5024972;28;20036;-69
2022/10/03 06:30:55;;;;;;;11.20;8.52;;;;;;;15.95;100.00;97262.41;5024640;28;20240;-70
2022/10/03 06:33:39;;;;;;;11.35;7.95;;;;;;;15.98;100.00;97263.94;5024789;28;20029;-69
2022/10/03 06:36:22;;;;;;;12.05;8.00;;;;;;;15.96;100.00;97271.06;5023105;28;20099;-70
2022/10/03 06:39:26;;;;;;;15.38;8.70;;;;;;;15.92;100.00;97260.06;5019710;28;20108;-70
2022/10/03 06:41:57;;;;;;;14.88;9.43;;;;;;;15.98;100.00;97275.19;5019366;28;20029;-69
2022/10/03 06:44:34;;;;;;;11.07;8.50;;;;;;;16.01;100.00;97250.63;5017670;28;20084;-67
2022/10/03 06:47:02;;;;;;;9.68;7.10;;;;;;;15.84;100.00;97254.63;5032675;28;20368;-68
2022/10/03 06:49:41;;;;;;;14.13;7.63;;;;;;;15.90;100.00;97250.69;5016922;28;20018;-68
2022/10/03 06:52:26;;;;;;;10.82;8.13;;;;;;;15.99;100.00;97247.28;5018024;28;20030;-68
2022/10/03 06:55:06;;;;;;;13.93;7.40;;;;;;;15.94;100.00;97242.47;5019323;28;20036;-68
2022/10/03 06:57:44;;;;;;;10.73;7.85;;;;;;;16.04;100.00;97240.75;5019903;28;20053;-68
2022/10/03 07:00:57;;;;;;;10.43;7.35;;;;;;;15.92;100.00;97246.16;5018963;28;20038;-69
2022/10/03 07:04:17;;;;;;;10.52;7.05;;;;;;;15.92;100.00;97244.38;5025673;28;20069;-68
2022/10/03 07:06:51;;;;;;;10.57;7.38;;;;;;;15.98;99.13;97251.69;5008195;28;20068;-69
2022/10/03 07:09:52;;;;;;;11.80;6.85;;;;;;;15.91;99.82;97268.84;5023511;28;20017;-68
2022/10/03 07:12:44;;;;;;;13.77;7.63;;;;;;;15.85;100.00;97264.94;5025972;28;20257;-69
2022/10/03 07:15:12;;;;;;;;;;;;;;;15.85;100.00;97278.00;5026001;28;20109;-68
2022/10/03 07:18:05;;;;;;;11.65;7.45;;;;;;;15.80;100.00;97266.28;5024965;28;19905;-69
2022/10/03 07:20:55;;;;;;;11.13;7.05;;;;;;;15.69;100.00;97270.56;5029289;28;20029;-69
2022/10/03 07:23:23;;;;;;;10.02;7.47;;;;;;;15.86;100.00;97258.78;5032309;28;20040;-69
2022/10/03 07:26:16;;;;;;;13.43;7.25;;;;;;;15.87;100.00;97281.28;5025441;28;20100;-69
2022/10/03 07:29:19;;;;;;;11.27;7.15;;;;;;;15.81;100.00;97270.53;5005521;28;20326;-69
2022/10/03 07:32:04;;;;;;;;;;;;;;;15.78;100.00;97281.22;4997605;28;20080;-68
2022/10/03 07:34:33;;;;;;;10.85;6.88;;;;;;;15.64;100.00;97283.16;5009143;28;20105;-69
2022/10/03 07:40:19;;;;;;;13.80;7.47;;;;;;;15.51;100.00;97270.28;5018589;28;20221;-70
2022/10/03 07:43:05;;;;;;;17.85;9.00;;;;;;;15.64;100.00;97272.72;5013875;28;20021;-70
2022/10/03 07:45:56;;;;;;;15.98;8.35;;;;;;;15.51;100.00;97274.66;5018645;28;20033;-70
2022/10/03 07:48:49;;;;;;;14.27;7.93;;;;;;;15.38;100.00;97260.94;5020719;28;20092;-70
2022/10/03 07:51:23;;;;;;;9.13;7.53;;;;;;;15.45;100.00;97264.72;5019216;28;20242;-70
2022/10/03 07:54:10;;;;;;;11.20;7.10;;;;;;;15.42;100.00;97255.38;5018308;28;20040;-69
2022/10/03 07:56:48;;;;;;;11.60;7.43;;;;;;;15.45;100.00;97269.94;5020186;28;20249;-69
2022/10/03 07:59:32;;;;;;;14.05;8.07;;;;;;;15.49;100.00;97266.13;5016729;28;20050;-68
2022/10/03 08:02:29;;;;;;;8.63;6.18;;;;;;;15.47;100.00;97253.19;5015550;28;20226;-69
2022/10/03 08:05:06;;;;;;;16.80;7.40;;;;;;;15.45;100.00;97249.06;5022378;28;20021;-69
2022/10/03 08:07:46;;;;;;;11.95;6.57;;;;;;;15.38;100.00;97253.13;5019040;28;20092;-70
2022/10/03 08:10:51;;;;;;;10.35;6.20;;;;;;;15.33;100.00;97254.34;5016984;28;20034;-70
2022/10/03 08:13:32;;;;;;;9.80;6.22;;;;;;;15.43;100.00;97258.81;5002556;28;20031;-70
2022/10/03 08:16:20;;;;;;;13.38;6.38;;;;;;;15.22;100.00;97248.31;5020525;28;20072;-69
2022/10/03 08:19:23;;;;;;;9.88;6.68;;;;;;;15.48;100.00;97265.31;5015079;28;20032;-70
2022/10/03 08:22:03;;;;;;;8.18;5.97;;;;;;;15.39;100.00;97242.59;5015576;28;20058;-69
2022/10/03 08:25:01;;;;;;;8.57;6.07;;;;;;;15.43;100.00;97240.53;5019081;28;20038;-69
2022/10/03 08:27:53;;;;;;;9.10;5.38;;;;;;;15.39;100.00;97252.16;5014156;28;20029;-69
2022/10/03 08:30:21;;;;;;;6.28;4.95;;;;;;;15.27;100.00;97241.78;5022548;28;20026;-67
2022/10/03 08:33:05;;;;;;;11.93;4.88;;;;;;;15.32;100.00;97252.69;5017728;28;20065;-68
2022/10/03 08:35:49;;;;;;;6.47;4.20;;;;;;;15.28;100.00;97266.91;5012905;28;20326;-67
2022/10/03 08:38:39;;;;;;;9.90;5.05;;;;;;;15.46;100.00;97277.66;5015068;28;20030;-68
2022/10/03 08:41:29;;;;;;;8.55;4.60;;;;;;;15.45;100.00;97277.75;5023392;28;20101;-69
2022/10/03 08:43:57;;;;;;;8.32;4.68;;;;;;;15.48;99.74;97286.16;5023624;28;20092;-67
2022/10/03 08:46:47;;;;;;;10.07;4.30;;;;;;;15.41;99.46;97284.19;5023951;28;20033;-67
2022/10/03 08:49:51;;;;;;;7.75;4.07;;;;;;;15.42;99.17;97286.69;5020769;28;20371;-68
2022/10/03 08:52:35;;;;;;;8.13;4.70;;;;;;;15.32;100.00;97299.63;5000536;28;20077;-68
2022/10/03 08:55:31;;;;;;;9.48;4.97;;;;;;;15.38;99.62;97282.66;5012684;28;20026;-68
2022/10/03 08:58:27;;;;;;;8.20;4.63;;;;;;;15.35;98.98;97296.75;5023578;28;20038;-68
2022/10/03 09:01:23;;;;;;;7.18;4.45;;;;;;;15.45;99.73;97306.44;5023647;28;20036;-68
2022/10/03 09:04:24;;;;;;;9.60;5.05;;;;;;;15.30;99.62;97293.69;5023698;28;20084;-67
2022/10/03 09:07:14;;;;;;;8.93;4.90;;;;;;;15.32;100.00;97304.00;4991454;28;20046;-67
2022/10/03 09:09:58;;;;;;;8.88;5.03;;;;;;;15.40;99.55;97295.56;5021397;28;20041;-67
2022/10/03 09:13:03;;;;;;;9.80;5.88;;;;;;;15.56;100.00;97290.75;5018810;28;20195;-66
2022/10/03 09:15:44;;;;;;;9.90;5.60;;;;;;;15.35;100.00;97301.97;5005103;28;20041;-68
2022/10/03 09:18:34;;;;;;;6.18;4.05;;;;;;;15.26;100.00;97288.84;5012493;28;20112;-68
2022/10/03 09:21:25;;;;;;;6.28;4.75;;;;;;;15.35;100.00;97294.16;5024719;28;20037;-69
2022/10/03 09:24:08;;;;;;;6.75;4.50;;;;;;;15.35;99.74;97288.13;5022650;28;20057;-68
2022/10/03 09:26:48;;;;;;;11.70;5.25;;;;;;;15.39;99.43;97291.28;5023019;28;20365;-68
2022/10/03 09:29:52;;;;;;;7.28;3.78;;;;;;;15.29;99.20;97292.03;5023063;28;20041;-68
2022/10/03 09:32:45;;;;;;;5.90;3.70;;;;;;;15.22;99.37;97297.84;5022530;28;20085;-68
2022/10/03 09:35:28;;;;;;;10.32;4.90;;;;;;;15.42;98.70;97307.53;5030064;28;20377;-69
2022/10/03 09:38:15;;;;;;;5.55;3.92;;;;;;;15.31;98.82;97294.53;5011137;28;20053;-68
2022/10/03 09:41:09;;;;;;;7.68;3.67;;;;;;;15.40;98.37;97295.56;5005092;28;20042;-68
2022/10/03 09:44:19;;;;;;;3.72;3.30;;;;;;;15.38;98.50;97294.84;5023190;28;20044;-68
2022/10/03 09:50:23;;;;;;;4.65;3.20;;;;;;;15.51;97.88;97298.16;5018822;28;20056;-68
2022/10/03 09:52:49;;;;;;;3.42;3.13;;;;;;;15.31;97.82;97300.56;5012204;28;20068;-68
2022/10/03 09:55:20;;;;;;;5.85;3.72;;;;;;;15.39;98.64;97297.34;5025405;28;20097;-67
2022/10/03 09:57:49;;;;;;;6.85;3.60;;;;;;;15.23;98.94;97308.16;5021996;28;20033;-68
2022/10/03 10:00:31;;;;;;;6.57;3.70;;;;;;;15.19;99.40;97296.31;5024559;28;20089;-67
2022/10/03 10:03:24;;;;;;;4.53;3.55;;;;;;;15.26;99.68;97302.69;5026173;28;20040;-67
2022/10/03 10:06:11;;;;;;;5.95;3.30;;;;;;;15.11;100.00;97303.94;5024939;28;20361;-67
2022/10/03 10:09:08;;;;;;;5.80;3.95;;;;;;;15.11;100.00;97309.16;5023965;28;20025;-67
2022/10/03 10:11:52;;;;;;;7.28;3.70;;;;;;;15.01;100.00;97320.28;5027114;28;20114;-68
2022/10/03 10:14:17;;;;;;;4.80;4.40;;;;;;;15.23;100.00;97326.41;5026273;28;20033;-67
2022/10/03 10:17:20;;;;;;;5.43;4.70;;;;;;;15.25;100.00;97340.16;5026317;28;20421;-67
2022/10/03 10:20:17;;;;;;;4.13;3.05;;;;;;;14.68;99.91;97328.94;5025188;28;20314;-67
2022/10/03 10:23:15;;;;;;;4.82;2.80;;;;;;;14.89;100.00;97331.66;5014634;28;20080;-67
2022/10/03 10:25:47;;;;;;;3.35;2.08;;;;;;;14.83;98.48;97339.94;5001472;28;20088;-68
2022/10/03 10:28:42;;;;;;;4.38;1.98;;;;;;;14.83;98.49;97340.75;5022908;28;20030;-67
2022/10/03 10:31:31;;;;;;;4.00;3.50;;;;;;;14.95;98.95;97344.22;5026617;28;20064;-67
2022/10/03 10:34:24;;;;;;;3.15;1.90;;;;;;;14.84;98.67;97355.47;5026665;28;20026;-68
2022/10/03 10:37:25;;;;;;;8.30;7.45;;;;;;;14.93;98.77;97346.09;5026053;28;20038;-68
2022/10/03 10:40:03;;;;;;;2.58;2.28;;;;;;;15.08;98.52;97351.06;5015836;28;20048;-67
2022/10/03 10:43:16;;;;;;;4.55;2.35;;;;;;;15.08;98.76;97353.69;5034946;28;20045;-67
2022/10/03 10:45:54;;;;;;;3.65;2.78;;;;;;;15.17;99.06;97366.00;5025633;28;20026;-67
2022/10/03 10:48:53;;;;;;;5.50;3.30;;;;;;;15.12;99.47;97368.13;5024899;28;20322;-67
2022/10/03 10:51:51;;;;;;;3.72;2.85;;;;;;;15.10;99.79;97375.25;5025872;28;20032;-67
2022/10/03 10:55:02;;;;;;;3.65;2.90;;;;;;;14.98;99.90;97393.50;4976455;28;20038;-67
2022/10/03 10:58:06;;;;;;;3.95;2.42;;;;;;;14.88;99.24;97402.97;4937924;29;20035;-67
2022/10/03 11:00:38;;;;;;;;;;;;;;;14.53;97.36;97411.63;5025853;28;20133;-66
2022/10/03 11:03:41;;;;;;;4.82;2.00;;;;;;;14.58;97.17;97425.16;5023856;28;19918;-67
2022/10/03 11:06:35;;;;;;;2.10;1.40;;;;;;;14.28;95.91;97423.88;5021878;28;20061;-68
2022/10/03 11:09:34;;;;;;;2.30;1.83;;;;;;;14.46;97.06;97433.88;5022517;28;20266;-67
2022/10/03 11:12:21;;;;;;;2.03;1.83;;;;;;;14.36;96.20;97438.09;5019914;28;20061;-68
2022/10/03 11:15:05;;;;;;;3.10;2.17;;;;;;;14.39;96.79;97440.47;5018113;28;20194;-68
2022/10/03 11:17:50;;;;;;;5.90;2.70;;;;;;;14.40;97.33;97444.75;5015935;28;20025;-68
2022/10/03 11:20:38;;;;;;;2.88;1.80;;;;;;;14.45;96.88;97450.44;5016093;28;20026;-67
2022/10/03 11:23:34;;;;;;;2.47;1.90;;;;;;;14.46;96.33;97467.72;5021482;28;20026;-67
2022/10/03 11:26:24;;;;;;;4.97;1.92;;;;;;;14.24;95.28;97466.69;5017998;28;20026;-68
2022/10/03 11:29:19;;;;;;;2.38;2.10;;;;;;;14.29;95.39;97463.75;5016426;28;20052;-67
2022/10/03 11:32:18;;;;;;;1.60;1.45;;;;;;;14.22;95.20;97488.56;5018590;28;20042;-67
2022/10/03 11:35:30;;;;;;;2.83;1.80;;;;;;;14.06;94.39;97497.47;5015933;28;20033;-67
2022/10/03 11:38:23;;;;;;;2.60;1.60;;;;;;;14.07;93.18;97516.53;5005527;28;20089;-68
2022/10/03 11:40:54;;;;;;;1.90;1.80;;;;;;;14.07;92.70;97532.97;5016561;28;20392;-67
2022/10/03 11:43:38;;;;;;;2.88;1.70;;;;;;;14.01;91.11;97522.16;5029053;28;20065;-67
2022/10/03 11:46:26;;;;;;;3.75;1.73;;;;;;;14.10;91.21;97517.13;5025249;28;20340;-67
2022/10/03 11:49:00;;;;;;;3.28;1.73;;;;;;;14.12;91.32;97528.28;5024774;28;20105;-67
2022/10/03 11:51:42;;;;;;;1.98;1.45;;;;;;;13.96;87.58;97525.91;5025196;28;20076;-67
2022/10/03 11:54:14;;;;;;;;;;;;;;;14.19;88.20;97530.44;5024950;28;20026;-67
2022/10/03 11:56:44;;;;;;;2.15;1.60;;;;;;;14.03;88.71;97533.31;5023574;28;19906;-68
2022/10/03 11:59:50;;;;;;;3.03;1.50;;;;;;;13.93;85.11;97546.94;5024950;28;20341;-67
2022/10/03 12:02:19;;;;;;;2.05;1.02;;;;;;;13.90;84.04;97551.56;5024357;28;20037;-68
2022/10/03 12:05:15;;;;;;;1.63;1.30;;;;;;;13.84;82.30;97539.78;5023075;28;20273;-67
2022/10/03 12:11:05;;;;;;;1.38;1.20;;;;;;;13.87;82.64;97563.00;5024616;28;20049;-68
2022/10/03 12:13:49;;;;;;;1.42;1.33;;;;;;;14.00;83.55;97562.16;5024517;28;20029;-68
2022/10/03 12:16:44;;;;;;;1.13;1.02;;;;;;;13.83;81.13;97556.34;5024268;28;20033;-68
2022/10/03 12:19:23;;;;;;;2.67;1.02;;;;;;;13.71;80.24;97586.66;5016977;28;20306;-68
2022/10/03 12:22:17;;;;;;;2.05;0.90;;;;;;;13.56;78.72;97582.47;5024878;28;20036;-68
2022/10/03 12:24:45;;;;;;;1.25;0.65;;;;;;;13.51;76.27;97592.34;5024110;28;20025;-68
2022/10/03 12:27:33;;;;;;;4.90;0.80;;;;;;;13.36;75.57;97592.44;5024189;28;20076;-68
2022/10/03 12:30:03;;;;;;;2.78;0.77;;;;;;;13.36;74.31;97600.25;5023916;28;20025;-68
2022/10/03 12:32:48;;;;;;;1.75;0.85;;;;;;;13.45;75.03;97619.59;5022925;28;20042;-68
2022/10/03 12:35:23;;;;;;;0.50;0.50;;;;;;;13.58;75.89;97627.41;5004433;28;20089;-68
2022/10/03 12:38:13;;;;;;;1.55;0.70;;;;;;;13.34;76.04;97635.03;5004572;28;20054;-69
2022/10/03 12:40:46;;;;;;;1.85;0.90;;;;;;;13.26;74.91;97640.75;5022583;28;20034;-68
2022/10/03 12:43:34;;;;;;;1.08;0.70;;;;;;;13.29;73.72;97653.56;5022705;28;20040;-67
2022/10/03 12:46:13;;;;;;;4.65;0.80;;;;;;;13.19;74.61;97671.50;5024010;28;20096;-67
2022/10/03 12:48:48;;;;;;;0.50;0.50;;;;;;;13.06;73.94;97665.44;5023709;28;20028;-68
2022/10/03 12:51:34;;;;;;;2.38;0.80;;;;;;;13.27;75.94;97687.44;5015185;28;20057;-68
2022/10/03 12:54:18;;;;;;;1.88;0.80;;;;;;;13.14;73.76;97696.97;5023833;28;20088;-68
2022/10/03 12:57:13;;;;;;;6.63;0.90;;;;;;;13.21;73.73;97674.84;5023373;28;20042;-66
2022/10/03 12:59:55;;;;;;;3.40;0.50;;;;;;;13.06;71.10;97684.47;5015980;28;20042;-68